Time;durP1;ratioP1;P1;durP2;ratioP2;P2;SDS_P1;SDS_P2;PMS_P1;PMS_P2;Temp;Humidity;BMP_temperature;BMP_pressure;BME280_temperature;BME280_humidity;BME280_pressure;Samples;Min_cycle;Max_cycle;Signal;HPM_P1;HPM_P2
2021/01/01 00:01:07;;;;;;;;;;;4.90;99.90;;;;;;4998624;28;19913;-81
2021/01/01 00:03:33;;;;;;;;;;;4.90;99.90;;;;;;4995225;28;20390;-79
2021/01/01 00:05:58;;;;;;;;;;;4.90;99.90;;;;;;4973173;28;19921;-80
2021/01/01 00:08:24;;;;;;;;;;;4.90;99.90;;;;;;4995685;28;20459;-81
2021/01/01 00:10:50;;;;;;;;;;;4.90;99.90;;;;;;4995840;28;19917;-81
2021/01/01 00:13:16;;;;;;;;;;;4.90;99.90;;;;;;4997231;28;19925;-81
2021/01/01 00:15:41;;;;;;;;;;;4.90;99.90;;;;;;4980290;28;19913;-82
2021/01/01 00:18:07;;;;;;;;;;;4.90;99.90;;;;;;4995950;28;19914;-81
2021/01/01 00:20:32;;;;;;;;;;;4.90;99.90;;;;;;4996195;28;19921;-81
2021/01/01 00:22:58;;;;;;;;;;;4.90;99.90;;;;;;4996438;28;20360;-81
2021/01/01 00:25:23;;;;;;;;;;;4.90;99.90;;;;;;4996498;28;19918;-82
2021/01/01 00:27:48;;;;;;;;;;;4.90;99.90;;;;;;4998974;28;19946;-81
2021/01/01 00:30:14;;;;;;;;;;;4.90;99.90;;;;;;4997809;28;20373;-82
2021/01/01 00:32:40;;;;;;;;;;;4.90;99.90;;;;;;4997983;28;20072;-82
2021/01/01 00:35:06;;;;;;;;;;;4.90;99.90;;;;;;4979590;28;20414;-81
2021/01/01 00:37:33;;;;;;;;;;;4.90;99.90;;;;;;4995919;28;19936;-81
2021/01/01 00:39:59;;;;;;;;;;;4.90;99.90;;;;;;4994937;28;19914;-81
2021/01/01 00:42:24;;;;;;;;;;;4.90;99.90;;;;;;4981293;28;19925;-82
2021/01/01 00:44:50;;;;;;;;;;;4.90;99.90;;;;;;4980204;28;20390;-81
2021/01/01 00:47:15;;;;;;;;;;;4.90;99.90;;;;;;4998433;28;19922;-82
2021/01/01 00:49:41;;;;;;;;;;;4.90;99.90;;;;;;4979681;28;19918;-82
2021/01/01 00:52:06;;;;;;;;;;;4.90;99.90;;;;;;4997657;28;19917;-80
2021/01/01 00:54:32;;;;;;;;;;;4.90;99.90;;;;;;4980064;28;19977;-82
2021/01/01 00:56:58;;;;;;;;;;;4.90;99.90;;;;;;4997145;28;19914;-82
2021/01/01 00:59:24;;;;;;;;;;;4.80;99.90;;;;;;4997664;28;19924;-82
2021/01/01 01:01:50;;;;;;;;;;;4.80;99.90;;;;;;5001053;28;19921;-81
2021/01/01 01:04:15;;;;;;;;;;;4.70;99.90;;;;;;4996604;28;19914;-82
2021/01/01 01:06:41;;;;;;;;;;;4.60;99.90;;;;;;4981395;28;19918;-82
2021/01/01 01:09:06;;;;;;;;;;;4.60;99.90;;;;;;4981327;28;20390;-82
2021/01/01 01:11:33;;;;;;;;;;;4.60;99.90;;;;;;4979807;28;19961;-82
2021/01/01 01:13:59;;;;;;;;;;;4.60;99.90;;;;;;4987511;28;19914;-81
2021/01/01 01:16:25;;;;;;;;;;;4.60;99.90;;;;;;4984575;28;19914;-82
2021/01/01 01:18:51;;;;;;;;;;;4.60;99.90;;;;;;5002958;28;19957;-82
2021/01/01 01:21:17;;;;;;;;;;;4.60;99.90;;;;;;4997939;28;19968;-82
2021/01/01 01:23:42;;;;;;;;;;;4.60;99.90;;;;;;4996630;28;19933;-81
2021/01/01 01:26:08;;;;;;;;;;;4.60;99.90;;;;;;4998934;28;19910;-82
2021/01/01 01:28:33;;;;;;;;;;;4.60;99.90;;;;;;4980682;28;19961;-82
2021/01/01 01:30:59;;;;;;;;;;;4.60;99.90;;;;;;4999037;28;19910;-81
2021/01/01 01:33:24;;;;;;;;;;;4.60;99.90;;;;;;4977513;28;19925;-82
2021/01/01 01:35:50;;;;;;;;;;;4.60;99.90;;;;;;4997744;28;19910;-82
2021/01/01 01:38:15;;;;;;;;;;;4.60;99.90;;;;;;4985711;28;19936;-81
2021/01/01 01:40:41;;;;;;;;;;;4.60;99.90;;;;;;5019012;28;19922;-82
2021/01/01 01:43:06;;;;;;;;;;;4.60;99.90;;;;;;5000639;28;19961;-81
2021/01/01 01:45:31;;;;;;;;;;;4.60;99.90;;;;;;4998394;28;19914;-81
2021/01/01 01:47:58;;;;;;;;;;;4.50;99.90;;;;;;4996921;28;20009;-82
2021/01/01 01:50:24;;;;;;;;;;;4.50;99.90;;;;;;4981128;28;20388;-81
2021/01/01 01:52:49;;;;;;;;;;;4.40;99.90;;;;;;4979471;28;19918;-81
2021/01/01 01:55:15;;;;;;;;;;;4.40;99.90;;;;;;4997483;28;19913;-82
2021/01/01 01:57:41;;;;;;;;;;;4.40;99.90;;;;;;4998111;28;20388;-81
2021/01/01 02:00:22;;;;;;;;;;;4.30;99.90;;;;;;4980595;28;20013;-81
2021/01/01 02:02:48;;;;;;;;;;;4.30;99.90;;;;;;4978953;28;19910;-82
2021/01/01 02:05:14;;;;;;;;;;;4.30;99.90;;;;;;4979064;28;20282;-81
2021/01/01 02:07:40;;;;;;;;;;;4.30;99.90;;;;;;4997592;28;20385;-81
2021/01/01 02:10:06;;;;;;;;;;;4.30;99.90;;;;;;4997212;28;19909;-81
2021/01/01 02:12:31;;;;;;;;;;;4.30;99.90;;;;;;4980416;28;19921;-81
2021/01/01 02:14:56;;;;;;;;;;;4.20;99.90;;;;;;4996798;28;19957;-81
2021/01/01 02:17:22;;;;;;;;;;;4.20;99.90;;;;;;5001556;28;19960;-81
2021/01/01 02:20:01;;;;;;;;;;;4.20;99.90;;;;;;4999809;28;19952;-81
2021/01/01 02:22:26;;;;;;;;;;;4.20;99.90;;;;;;4982347;28;19941;-82
2021/01/01 02:24:52;;;;;;;;;;;4.20;99.90;;;;;;5001080;28;19917;-82
2021/01/01 02:27:17;;;;;;;;;;;4.20;99.90;;;;;;4983817;28;19917;-82
2021/01/01 02:29:42;;;;;;;;;;;4.10;99.90;;;;;;4982872;28;19910;-81
2021/01/01 02:32:08;;;;;;;;;;;4.10;99.90;;;;;;4982703;28;19961;-82
2021/01/01 02:34:33;;;;;;;;;;;4.10;99.90;;;;;;4982152;28;19917;-82
2021/01/01 02:36:59;;;;;;;;;;;4.10;99.90;;;;;;4982310;28;19973;-82
2021/01/01 02:39:24;;;;;;;;;;;4.10;99.90;;;;;;5000441;28;19914;-81
2021/01/01 02:41:50;;;;;;;;;;;4.10;99.90;;;;;;4997657;28;19973;-81
2021/01/01 02:44:18;;;;;;;;;;;4.10;99.90;;;;;;4998615;28;20582;-81
2021/01/01 02:46:44;;;;;;;;;;;4.10;99.90;;;;;;4982673;28;19973;-81
2021/01/01 02:49:09;;;;;;;;;;;4.10;99.90;;;;;;4983446;28;19956;-81
2021/01/01 02:51:35;;;;;;;;;;;4.10;99.90;;;;;;4999623;28;20457;-81
2021/01/01 02:54:00;;;;;;;;;;;4.10;99.90;;;;;;4982696;28;19925;-81
2021/01/01 02:56:25;;;;;;;;;;;4.00;99.90;;;;;;4999057;28;20011;-81
2021/01/01 02:58:51;;;;;;;;;;;3.90;99.90;;;;;;4999679;28;19924;-81
2021/01/01 03:01:18;;;;;;;;;;;3.90;99.90;;;;;;5000263;28;19960;-81
2021/01/01 03:03:44;;;;;;;;;;;3.80;99.90;;;;;;5000394;28;19949;-81
2021/01/01 03:06:09;;;;;;;;;;;3.80;99.90;;;;;;5000538;28;19917;-81
2021/01/01 03:08:35;;;;;;;;;;;3.80;99.90;;;;;;5000292;28;19918;-81
2021/01/01 03:11:00;;;;;;;;;;;3.80;99.90;;;;;;5000511;28;19957;-81
2021/01/01 03:13:25;;;;;;;;;;;3.80;99.90;;;;;;4998190;28;19925;-81
2021/01/01 03:15:51;;;;;;;;;;;3.80;99.90;;;;;;5007523;28;20000;-80
2021/01/01 03:18:16;;;;;;;;;;;3.90;99.90;;;;;;4998919;28;20437;-81
2021/01/01 03:20:42;;;;;;;;;;;3.90;99.90;;;;;;4982951;28;19937;-81
2021/01/01 03:23:07;;;;;;;;;;;3.90;99.90;;;;;;4980052;28;19914;-81
2021/01/01 03:25:33;;;;;;;;;;;3.90;99.90;;;;;;4981000;28;20512;-81
2021/01/01 03:27:58;;;;;;;;;;;3.90;99.90;;;;;;4998338;28;19921;-81
2021/01/01 03:30:24;;;;;;;;;;;4.00;99.90;;;;;;4999933;28;19917;-81
2021/01/01 03:32:49;;;;;;;;;;;4.00;99.90;;;;;;4980913;28;19918;-82
2021/01/01 03:35:14;;;;;;;;;;;4.00;99.90;;;;;;4970293;28;19949;-82
2021/01/01 03:37:40;;;;;;;;;;;4.00;99.90;;;;;;4993346;28;19918;-82
2021/01/01 03:40:06;;;;;;;;;;;4.00;99.90;;;;;;4997823;28;19914;-81
2021/01/01 03:42:31;;;;;;;;;;;4.00;99.90;;;;;;4981786;28;19918;-81
2021/01/01 03:44:57;;;;;;;;;;;4.00;99.90;;;;;;4997569;28;19914;-81
2021/01/01 03:47:22;;;;;;;;;;;4.00;99.90;;;;;;5000024;28;19914;-82
2021/01/01 03:49:48;;;;;;;;;;;3.90;99.90;;;;;;4982140;28;19952;-81
2021/01/01 03:52:13;;;;;;;;;;;3.90;99.90;;;;;;4997622;28;19917;-82
2021/01/01 03:54:39;;;;;;;;;;;3.80;99.90;;;;;;4998309;28;19914;-82
2021/01/01 03:57:04;;;;;;;;;;;3.80;99.90;;;;;;4981738;28;19917;-81
2021/01/01 03:59:30;;;;;;;;;;;3.80;99.90;;;;;;4981468;28;20020;-81
2021/01/01 04:01:55;;;;;;;;;;;3.80;99.90;;;;;;4997398;28;19957;-82
2021/01/01 04:04:21;;;;;;;;;;;3.80;99.90;;;;;;4997134;28;19917;-82
2021/01/01 04:06:46;;;;;;;;;;;3.80;99.90;;;;;;4982258;28;19977;-82
2021/01/01 04:09:11;;;;;;;;;;;3.80;99.90;;;;;;4981248;28;19917;-80
2021/01/01 04:11:37;;;;;;;;;;;3.90;99.90;;;;;;4982070;28;20360;-82
2021/01/01 04:14:04;;;;;;;;;;;3.90;99.90;;;;;;4981318;28;19960;-82
2021/01/01 04:16:30;;;;;;;;;;;4.00;99.90;;;;;;4981087;28;19936;-81
2021/01/01 04:18:56;;;;;;;;;;;4.00;99.90;;;;;;4981208;28;19949;-82
2021/01/01 04:21:21;;;;;;;;;;;4.00;99.90;;;;;;4999456;28;19917;-81
2021/01/01 04:23:47;;;;;;;;;;;4.00;99.90;;;;;;4980955;28;20654;-82
2021/01/01 04:26:13;;;;;;;;;;;4.00;99.90;;;;;;5001067;28;19913;-81
2021/01/01 04:28:38;;;;;;;;;;;4.00;99.90;;;;;;4986232;28;19914;-81
2021/01/01 04:31:04;;;;;;;;;;;4.00;99.90;;;;;;4982999;28;19945;-82
2021/01/01 04:33:30;;;;;;;;;;;4.10;99.90;;;;;;4997271;28;19944;-83
2021/01/01 04:35:56;;;;;;;;;;;4.10;99.90;;;;;;4980774;28;19925;-82
2021/01/01 04:38:21;;;;;;;;;;;4.10;99.90;;;;;;4996821;28;19914;-82
2021/01/01 04:40:47;;;;;;;;;;;4.10;99.90;;;;;;4997513;28;20020;-82
2021/01/01 04:43:12;;;;;;;;;;;4.10;99.90;;;;;;4980120;28;19922;-82
2021/01/01 04:45:38;;;;;;;;;;;4.10;99.90;;;;;;4981428;28;19988;-82
2021/01/01 04:48:03;;;;;;;;;;;4.10;99.90;;;;;;4980606;28;20017;-82
2021/01/01 04:50:29;;;;;;;;;;;4.10;99.90;;;;;;4996549;28;19935;-82
2021/01/01 04:52:55;;;;;;;;;;;4.10;99.90;;;;;;4995670;28;19921;-81
2021/01/01 04:55:21;;;;;;;;;;;4.10;99.90;;;;;;4997523;28;19972;-82
2021/01/01 04:57:48;;;;;;;;;;;4.10;99.90;;;;;;4998069;28;19921;-82
2021/01/01 05:00:15;;;;;;;;;;;4.10;99.90;;;;;;5012161;28;19917;-82
2021/01/01 05:02:40;;;;;;;;;;;4.10;99.90;;;;;;4980503;28;20207;-82
2021/01/01 05:05:06;;;;;;;;;;;4.10;99.90;;;;;;4980390;28;19960;-82
2021/01/01 05:07:31;;;;;;;;;;;4.10;99.90;;;;;;4996444;28;19922;-82
2021/01/01 05:09:57;;;;;;;;;;;4.10;99.90;;;;;;4980999;28;19910;-82
2021/01/01 05:12:29;;;;;;;;;;;4.10;99.90;;;;;;4979662;28;19928;-82
2021/01/01 05:14:54;;;;;;;;;;;4.10;99.90;;;;;;4997882;28;20413;-82
2021/01/01 05:17:30;;;;;;;;;;;4.10;99.90;;;;;;4996961;28;19917;-82
2021/01/01 05:20:02;;;;;;;;;;;4.10;99.90;;;;;;4998556;28;19910;-82
2021/01/01 05:22:30;;;;;;;;;;;4.10;99.90;;;;;;4981123;28;19935;-82
2021/01/01 05:25:00;;;;;;;;;;;4.00;99.90;;;;;;4980862;28;19910;-82
2021/01/01 05:27:31;;;;;;;;;;;4.00;99.90;;;;;;4997989;28;19945;-82
2021/01/01 05:29:57;;;;;;;;;;;4.00;99.90;;;;;;5012287;28;20341;-82
2021/01/01 05:32:30;;;;;;;;;;;4.00;99.90;;;;;;4997274;28;20009;-82
2021/01/01 05:34:58;;;;;;;;;;;4.00;99.90;;;;;;5009435;28;19909;-82
2021/01/01 05:37:25;;;;;;;;;;;4.00;99.90;;;;;;4998981;28;19910;-82
2021/01/01 05:39:58;;;;;;;;;;;4.00;99.90;;;;;;4979839;28;19914;-82
2021/01/01 05:42:24;;;;;;;;;;;4.00;99.90;;;;;;4980150;28;21696;-82
2021/01/01 05:44:49;;;;;;;;;;;3.90;99.90;;;;;;4980739;28;19973;-82
2021/01/01 05:47:15;;;;;;;;;;;3.90;99.90;;;;;;4995052;28;19913;-82
2021/01/01 05:49:40;;;;;;;;;;;3.90;99.90;;;;;;4979834;28;19914;-82
2021/01/01 05:52:16;;;;;;;;;;;3.90;99.90;;;;;;4984252;28;19914;-82
2021/01/01 05:54:43;;;;;;;;;;;3.90;99.90;;;;;;5016393;28;19973;-80
2021/01/01 05:57:10;;;;;;;;;;;3.80;99.90;;;;;;5001881;28;19910;-82
2021/01/01 05:59:36;;;;;;;;;;;3.80;99.90;;;;;;4983041;28;19920;-82
2021/01/01 06:02:02;;;;;;;;;;;3.80;99.90;;;;;;5000719;28;20286;-82
2021/01/01 06:04:28;;;;;;;;;;;3.80;99.90;;;;;;4981477;28;19914;-82
2021/01/01 06:06:54;;;;;;;;;;;3.80;99.90;;;;;;5002148;28;20047;-82
2021/01/01 06:09:20;;;;;;;;;;;3.80;99.90;;;;;;4982503;28;19913;-82
2021/01/01 06:11:56;;;;;;;;;;;3.80;99.90;;;;;;5002381;28;19921;-82
2021/01/01 06:14:24;;;;;;;;;;;3.80;99.90;;;;;;4983472;28;19914;-82
2021/01/01 06:16:49;;;;;;;;;;;3.80;99.90;;;;;;4984144;28;19964;-82
2021/01/01 06:19:22;;;;;;;;;;;3.80;99.90;;;;;;4982512;28;19918;-82
2021/01/01 06:21:56;;;;;;;;;;;3.80;99.90;;;;;;5000060;28;19937;-82
2021/01/01 06:24:22;;;;;;;;;;;3.80;99.90;;;;;;4983033;28;19920;-82
2021/01/01 06:26:47;;;;;;;;;;;3.80;99.90;;;;;;5001464;28;19910;-82
2021/01/01 06:29:16;;;;;;;;;;;3.80;99.90;;;;;;4983756;28;19914;-82
2021/01/01 06:31:43;;;;;;;;;;;3.80;99.90;;;;;;4982866;28;19921;-81
2021/01/01 06:34:21;;;;;;;;;;;3.80;99.90;;;;;;4999034;28;19913;-82
2021/01/01 06:36:48;;;;;;;;;;;3.80;99.90;;;;;;5014718;28;19914;-82
2021/01/01 06:39:33;;;;;;;;;;;3.80;99.90;;;;;;4982961;28;19938;-82
2021/01/01 06:41:59;;;;;;;;;;;3.70;99.90;;;;;;4981549;28;19925;-82
2021/01/01 06:44:41;;;;;;;;;;;3.80;99.90;;;;;;4998385;28;19914;-82
2021/01/01 06:47:07;;;;;;;;;;;3.70;99.90;;;;;;4987146;28;19975;-82
2021/01/01 06:49:34;;;;;;;;;;;3.70;99.90;;;;;;5001270;28;19914;-82
2021/01/01 06:52:09;;;;;;;;;;;3.70;99.90;;;;;;5000873;28;19969;-82
2021/01/01 06:54:51;;;;;;;;;;;3.70;99.90;;;;;;4999349;28;19914;-82
2021/01/01 06:57:17;;;;;;;;;;;3.60;99.90;;;;;;4984050;28;19940;-82
2021/01/01 06:59:42;;;;;;;;;;;3.60;99.90;;;;;;4981946;28;19920;-82
2021/01/01 07:02:21;;;;;;;;;;;3.60;99.90;;;;;;4998878;28;19921;-82
2021/01/01 07:04:47;;;;;;;;;;;3.60;99.90;;;;;;4999903;28;19916;-82
2021/01/01 07:07:32;;;;;;;;;;;3.60;99.90;;;;;;5015189;28;19937;-82
2021/01/01 07:09:58;;;;;;;;;;;3.60;99.90;;;;;;5000114;28;19910;-82
2021/01/01 07:12:23;;;;;;;;;;;3.60;99.90;;;;;;4999171;28;19941;-82
2021/01/01 07:14:49;;;;;;;;;;;3.60;99.90;;;;;;4998897;28;20450;-82
2021/01/01 07:17:14;;;;;;;;;;;3.50;99.90;;;;;;4999178;28;20297;-82
2021/01/01 07:19:40;;;;;;;;;;;3.60;99.90;;;;;;4998153;28;20058;-83
2021/01/01 07:22:05;;;;;;;;;;;3.70;99.90;;;;;;4982677;28;19913;-81
2021/01/01 07:24:30;;;;;;;;;;;3.70;99.90;;;;;;5000715;28;19961;-81
2021/01/01 07:26:57;;;;;;;;;;;3.80;99.90;;;;;;4999836;28;19917;-83
2021/01/01 07:29:25;;;;;;;;;;;3.80;99.90;;;;;;5000094;28;19924;-83
2021/01/01 07:31:52;;;;;;;;;;;3.80;99.90;;;;;;4998395;28;19921;-83
2021/01/01 07:34:18;;;;;;;;;;;3.80;99.90;;;;;;5014620;28;19914;-83
2021/01/01 07:36:44;;;;;;;;;;;3.90;99.90;;;;;;4981198;28;19929;-82
2021/01/01 07:39:10;;;;;;;;;;;3.90;99.90;;;;;;5017453;28;20421;-81
2021/01/01 07:41:35;;;;;;;;;;;3.80;99.90;;;;;;4999606;28;19968;-83
2021/01/01 07:44:01;;;;;;;;;;;3.80;99.90;;;;;;5015516;28;19921;-83
2021/01/01 07:46:29;;;;;;;;;;;3.80;99.90;;;;;;4999386;28;19977;-82
2021/01/01 07:48:54;;;;;;;;;;;3.80;99.90;;;;;;5000880;28;19909;-83
2021/01/01 07:51:20;;;;;;;;;;;3.80;99.90;;;;;;4999616;28;19953;-83
2021/01/01 07:53:45;;;;;;;;;;;3.80;99.90;;;;;;4998161;28;19918;-83
2021/01/01 07:56:11;;;;;;;;;;;3.80;99.90;;;;;;4999126;28;19921;-83
2021/01/01 07:58:37;;;;;;;;;;;3.80;99.90;;;;;;4981365;28;19918;-83
2021/01/01 08:01:02;;;;;;;;;;;3.90;99.90;;;;;;4983171;28;19914;-84
2021/01/01 08:03:28;;;;;;;;;;;3.90;99.90;;;;;;4982607;28;19924;-82
2021/01/01 08:05:54;;;;;;;;;;;3.90;99.90;;;;;;4981840;28;19913;-82
2021/01/01 08:08:22;;;;;;;;;;;4.00;99.90;;;;;;4982290;28;19922;-83
2021/01/01 08:10:48;;;;;;;;;;;4.00;99.90;;;;;;4981471;28;19920;-83
2021/01/01 08:13:27;;;;;;;;;;;4.10;99.90;;;;;;4996820;28;19964;-82
2021/01/01 08:16:13;;;;;;;;;;;4.10;99.90;;;;;;4981662;28;19913;-83
2021/01/01 08:18:38;;;;;;;;;;;4.20;99.90;;;;;;4981746;28;19922;-82
2021/01/01 08:21:04;;;;;;;;;;;4.20;99.90;;;;;;4998411;28;19937;-83
2021/01/01 08:23:37;;;;;;;;;;;4.30;99.90;;;;;;4982307;28;19913;-83
2021/01/01 08:26:03;;;;;;;;;;;4.30;99.90;;;;;;4981965;28;19914;-83
2021/01/01 08:28:28;;;;;;;;;;;4.40;99.90;;;;;;4982236;28;19910;-83
2021/01/01 08:31:01;;;;;;;;;;;4.50;99.90;;;;;;4997094;28;20389;-83
2021/01/01 08:33:29;;;;;;;;;;;4.60;99.90;;;;;;4999116;28;20286;-84
2021/01/01 08:35:59;;;;;;;;;;;4.60;99.90;;;;;;4981065;28;19937;-83
2021/01/01 08:38:24;;;;;;;;;;;4.70;99.90;;;;;;5000223;28;20289;-83
2021/01/01 08:40:54;;;;;;;;;;;4.80;99.90;;;;;;4978799;28;19949;-80
2021/01/01 08:43:19;;;;;;;;;;;4.90;99.90;;;;;;4999535;28;19913;-80
2021/01/01 08:45:45;;;;;;;;;;;4.90;99.90;;;;;;4975694;28;19922;-81
2021/01/01 08:48:11;;;;;;;;;;;5.10;99.90;;;;;;5011325;28;19914;-82
2021/01/01 08:50:49;;;;;;;;;;;5.20;99.90;;;;;;4993352;28;19972;-82
2021/01/01 08:53:15;;;;;;;;;;;5.30;99.90;;;;;;4983512;28;19918;-82
2021/01/01 08:55:41;;;;;;;;;;;5.60;99.90;;;;;;4983124;28;19953;-82
2021/01/01 08:58:06;;;;;;;;;;;6.00;99.90;;;;;;5000064;28;19914;-82
2021/01/01 09:00:32;;;;;;;;;;;6.20;99.90;;;;;;5000374;28;20270;-82
2021/01/01 09:02:58;;;;;;;;;;;6.50;99.90;;;;;;5001936;28;19953;-82
2021/01/01 09:05:24;;;;;;;;;;;6.70;99.90;;;;;;4998579;28;19963;-82
2021/01/01 09:08:03;;;;;;;;;;;6.90;99.90;;;;;;5011763;28;20297;-82
2021/01/01 09:10:29;;;;;;;;;;;7.00;99.90;;;;;;5015104;28;19917;-82
2021/01/01 09:12:55;;;;;;;;;;;7.00;99.90;;;;;;5013990;28;19914;-82
2021/01/01 09:15:27;;;;;;;;;;;7.10;99.90;;;;;;4999176;28;19922;-82
2021/01/01 09:18:02;;;;;;;;;;;7.20;99.90;;;;;;4998214;28;19928;-82
2021/01/01 09:20:27;;;;;;;;;;;7.20;99.90;;;;;;4979809;28;19921;-82
2021/01/01 09:22:58;;;;;;;;;;;7.30;99.90;;;;;;4981079;28;19910;-82
2021/01/01 09:25:24;;;;;;;;;;;7.40;99.90;;;;;;4998720;28;19945;-82
2021/01/01 09:27:50;;;;;;;;;;;7.50;99.90;;;;;;4987563;28;19913;-82
2021/01/01 09:30:17;;;;;;;;;;;7.70;99.90;;;;;;4983249;28;19945;-84
2021/01/01 09:32:43;;;;;;;;;;;7.70;99.90;;;;;;4985014;28;19918;-82
2021/01/01 09:35:09;;;;;;;;;;;7.90;99.90;;;;;;5000162;28;19910;-83
2021/01/01 09:37:34;;;;;;;;;;;8.00;99.90;;;;;;5002818;28;19965;-82
2021/01/01 09:40:00;;;;;;;;;;;8.10;99.90;;;;;;5001077;28;19914;-83
2021/01/01 09:42:25;;;;;;;;;;;8.20;99.90;;;;;;5004703;28;19918;-82
2021/01/01 09:44:50;;;;;;;;;;;8.40;99.90;;;;;;5002726;28;19914;-83
2021/01/01 09:47:16;;;;;;;;;;;8.60;99.90;;;;;;4984559;28;20294;-82
2021/01/01 09:49:41;;;;;;;;;;;8.70;99.90;;;;;;4985721;28;20297;-82
2021/01/01 09:52:07;;;;;;;;;;;9.00;99.90;;;;;;4998613;28;19918;-82
2021/01/01 09:54:32;;;;;;;;;;;9.20;99.90;;;;;;4995388;28;19910;-82
2021/01/01 09:56:59;;;;;;;;;;;9.40;99.90;;;;;;5007820;28;20407;-82
2021/01/01 09:59:25;;;;;;;;;;;9.60;99.90;;;;;;5000753;28;19918;-82
2021/01/01 10:01:50;;;;;;;;;;;9.70;99.90;;;;;;5016696;28;19914;-82
2021/01/01 10:04:16;;;;;;;;;;;9.80;99.90;;;;;;4978490;28;19922;-81
2021/01/01 10:06:41;;;;;;;;;;;9.90;99.90;;;;;;5006700;28;20366;-82
2021/01/01 10:09:06;;;;;;;;;;;10.00;99.90;;;;;;5003042;28;19921;-82
2021/01/01 10:11:32;;;;;;;;;;;10.00;99.90;;;;;;5021077;28;19995;-82
2021/01/01 10:13:57;;;;;;;;;;;10.10;99.90;;;;;;4997142;28;19914;-82
2021/01/01 10:16:23;;;;;;;;;;;10.10;99.90;;;;;;4994879;28;20285;-82
2021/01/01 10:18:48;;;;;;;;;;;10.10;99.90;;;;;;5001279;28;19949;-82
2021/01/01 10:21:18;;;;;;;;;;;10.20;99.90;;;;;;5000705;28;19914;-80
2021/01/01 10:23:43;;;;;;;;;;;10.20;99.90;;;;;;5001157;28;20267;-80
2021/01/01 10:26:09;;;;;;;;;;;10.30;99.90;;;;;;4983885;28;19914;-82
2021/01/01 10:28:34;;;;;;;;;;;10.40;99.90;;;;;;4983697;28;20491;-81
2021/01/01 10:31:00;;;;;;;;;;;10.60;99.90;;;;;;5000133;28;19918;-82
2021/01/01 10:33:25;;;;;;;;;;;10.70;99.90;;;;;;4983894;28;19925;-81
2021/01/01 10:35:51;;;;;;;;;;;10.80;99.90;;;;;;5000050;28;20012;-82
2021/01/01 10:38:16;;;;;;;;;;;11.00;99.90;;;;;;5001508;28;19914;-82
2021/01/01 10:40:42;;;;;;;;;;;11.10;99.90;;;;;;5000499;28;19918;-82
2021/01/01 10:43:07;;;;;;;;;;;11.30;99.90;;;;;;5002016;28;19914;-82
2021/01/01 10:45:33;;;;;;;;;;;11.40;99.90;;;;;;5005923;28;19967;-82
2021/01/01 10:47:58;;;;;;;;;;;11.40;99.90;;;;;;5004134;28;19913;-82
2021/01/01 10:50:24;;;;;;;;;;;11.50;99.90;;;;;;4999794;28;19920;-81
2021/01/01 10:52:49;;;;;;;;;;;11.50;99.90;;;;;;4993674;28;19932;-81
2021/01/01 10:55:15;;;;;;;;;;;11.50;99.90;;;;;;4994852;28;19940;-83
2021/01/01 10:57:40;;;;;;;;;;;11.60;99.90;;;;;;5011926;28;19980;-81
2021/01/01 11:00:06;;;;;;;;;;;11.60;99.90;;;;;;4998357;28;19988;-82
2021/01/01 11:02:31;;;;;;;;;;;11.70;99.90;;;;;;5001609;28;20263;-81
2021/01/01 11:04:57;;;;;;;;;;;11.80;99.90;;;;;;4999899;28;19920;-82
2021/01/01 11:07:22;;;;;;;;;;;11.80;99.90;;;;;;4999945;28;19910;-82
2021/01/01 11:09:48;;;;;;;;;;;12.00;99.90;;;;;;5001056;28;19914;-82
2021/01/01 11:12:13;;;;;;;;;;;12.30;99.90;;;;;;5000601;28;20008;-82
2021/01/01 12:25:51;;;;;;;;;;;16.00;99.90;;;;;;5000562;28;19910;-82
2021/01/01 12:28:17;;;;;;;;;;;16.60;99.90;;;;;;5000717;28;19981;-82
2021/01/01 12:30:42;;;;;;;;;;;17.10;99.90;;;;;;4997928;28;20342;-82
2021/01/01 12:33:08;;;;;;;;;;;17.20;99.90;;;;;;4998601;28;19910;-81
2021/01/01 12:35:37;;;;;;;;;;;17.30;99.90;;;;;;4981875;28;19980;-82
2021/01/01 12:38:06;;;;;;;;;;;17.70;99.90;;;;;;4997669;28;20534;-82
2021/01/01 12:40:33;;;;;;;;;;;17.80;99.90;;;;;;4998035;28;19914;-82
2021/01/01 12:42:59;;;;;;;;;;;18.10;99.90;;;;;;4999668;28;20293;-81
2021/01/01 12:45:25;;;;;;;;;;;18.40;99.90;;;;;;4997813;28;19913;-81
2021/01/01 12:47:51;;;;;;;;;;;18.60;99.90;;;;;;4997919;28;19917;-81
2021/01/01 12:50:17;;;;;;;;;;;19.00;99.90;;;;;;5013394;28;19909;-81
2021/01/01 12:52:55;;;;;;;;;;;19.30;99.90;;;;;;4998273;28;19952;-81
2021/01/01 12:55:22;;;;;;;;;;;19.50;99.90;;;;;;4999381;28;19914;-81
2021/01/01 12:57:47;;;;;;;;;;;19.60;99.90;;;;;;4999312;28;19916;-81
2021/01/01 13:00:13;;;;;;;;;;;19.50;99.90;;;;;;4998633;28;19946;-81
2021/01/01 13:02:39;;;;;;;;;;;19.50;99.90;;;;;;4995731;28;19918;-81
2021/01/01 13:05:04;;;;;;;;;;;19.40;99.90;;;;;;4997957;28;19949;-80
2021/01/01 13:07:30;;;;;;;;;;;19.30;99.90;;;;;;4997857;28;19956;-82
2021/01/01 13:09:57;;;;;;;;;;;19.10;99.90;;;;;;4996879;28;19914;-81
2021/01/01 13:12:23;;;;;;;;;;;18.90;99.90;;;;;;4998978;28;19960;-81
2021/01/01 13:14:48;;;;;;;;;;;18.50;99.90;;;;;;4996381;28;19964;-81
2021/01/01 13:17:14;;;;;;;;;;;17.70;99.90;;;;;;4998280;28;19914;-81
2021/01/01 13:19:39;;;;;;;;;;;16.80;99.90;;;;;;4998006;28;19982;-80
2021/01/01 13:22:04;;;;;;;;;;;16.00;99.90;;;;;;4998974;28;19913;-81
2021/01/01 13:24:30;;;;;;;;;;;15.40;99.90;;;;;;4995910;28;19914;-81
2021/01/01 13:26:55;;;;;;;;;;;15.00;99.90;;;;;;4997543;28;19917;-80
2021/01/01 13:29:21;;;;;;;;;;;14.60;99.90;;;;;;5012592;28;20052;-81
2021/01/01 13:31:46;;;;;;;;;;;14.30;99.90;;;;;;4997325;28;19918;-81
2021/01/01 13:34:12;;;;;;;;;;;14.00;99.90;;;;;;4996998;28;19910;-81
2021/01/01 13:36:38;;;;;;;;;;;13.80;99.90;;;;;;4998301;28;20330;-81
2021/01/01 13:39:04;;;;;;;;;;;14.00;99.90;;;;;;4996256;28;19921;-81
2021/01/01 13:41:30;;;;;;;;;;;14.00;99.90;;;;;;4997305;28;19951;-81
2021/01/01 13:43:56;;;;;;;;;;;14.10;99.90;;;;;;4998651;28;19984;-80
2021/01/01 13:46:26;;;;;;;;;;;13.80;99.90;;;;;;4995867;28;19913;-81
2021/01/01 13:48:52;;;;;;;;;;;13.40;99.90;;;;;;4998630;28;19910;-81
2021/01/01 13:51:24;;;;;;;;;;;12.80;99.90;;;;;;4998277;28;19917;-81
2021/01/01 13:53:50;;;;;;;;;;;12.30;99.90;;;;;;4996776;28;19924;-81
2021/01/01 13:56:15;;;;;;;;;;;11.90;99.90;;;;;;4980872;28;20005;-81
2021/01/01 13:58:41;;;;;;;;;;;11.60;99.90;;;;;;4998090;28;19933;-80
2021/01/01 14:01:06;;;;;;;;;;;11.20;99.90;;;;;;4997420;28;19973;-81
2021/01/01 14:03:32;;;;;;;;;;;11.00;99.90;;;;;;4998178;28;19921;-81
2021/01/01 14:05:57;;;;;;;;;;;10.80;99.90;;;;;;4997151;28;19910;-81
2021/01/01 14:08:22;;;;;;;;;;;10.70;99.90;;;;;;4997453;28;19926;-81
2021/01/01 14:10:48;;;;;;;;;;;10.50;99.90;;;;;;4996727;28;20488;-81
2021/01/01 14:13:14;;;;;;;;;;;10.50;99.90;;;;;;4999451;28;19909;-81
2021/01/01 14:15:39;;;;;;;;;;;10.50;99.90;;;;;;5000178;28;19945;-81
2021/01/01 14:18:05;;;;;;;;;;;10.80;99.90;;;;;;5001222;28;19933;-81
2021/01/01 14:20:30;;;;;;;;;;;11.20;99.90;;;;;;5000269;28;19910;-81
2021/01/01 14:22:56;;;;;;;;;;;11.50;99.90;;;;;;5000796;28;19918;-81
2021/01/01 14:25:22;;;;;;;;;;;11.40;99.90;;;;;;4999628;28;19910;-81
2021/01/01 14:27:47;;;;;;;;;;;11.20;99.90;;;;;;5000608;28;19910;-81
2021/01/01 14:30:13;;;;;;;;;;;11.00;99.90;;;;;;5000878;28;19917;-81
2021/01/01 14:32:38;;;;;;;;;;;10.80;99.90;;;;;;4999921;28;19964;-80
2021/01/01 14:35:09;;;;;;;;;;;10.60;99.90;;;;;;5001353;28;19910;-81
2021/01/01 14:37:37;;;;;;;;;;;10.50;99.90;;;;;;5001492;28;19945;-80
2021/01/01 14:40:02;;;;;;;;;;;10.40;99.90;;;;;;5000900;28;19917;-81
2021/01/01 14:42:28;;;;;;;;;;;10.20;99.90;;;;;;4999620;28;19918;-80
2021/01/01 14:44:54;;;;;;;;;;;10.00;99.90;;;;;;4985536;28;19909;-80
2021/01/01 14:47:19;;;;;;;;;;;9.80;99.90;;;;;;5000333;28;20021;-80
2021/01/01 14:49:45;;;;;;;;;;;9.70;99.90;;;;;;4998573;28;20473;-80
2021/01/01 14:52:10;;;;;;;;;;;9.60;99.90;;;;;;5001161;28;19933;-80
2021/01/01 14:54:36;;;;;;;;;;;9.60;99.90;;;;;;5000479;28;19993;-81
2021/01/01 14:57:01;;;;;;;;;;;9.60;99.90;;;;;;4998890;28;19914;-80
2021/01/01 14:59:27;;;;;;;;;;;9.60;99.90;;;;;;5000559;28;19969;-81
2021/01/01 15:01:52;;;;;;;;;;;9.50;99.90;;;;;;4979619;28;20005;-80
2021/01/01 15:04:17;;;;;;;;;;;9.50;99.90;;;;;;4999419;28;20361;-80
2021/01/01 15:06:43;;;;;;;;;;;9.30;99.90;;;;;;4998903;28;20087;-83
2021/01/01 15:09:08;;;;;;;;;;;9.10;99.90;;;;;;5000420;28;19956;-81
2021/01/01 15:11:34;;;;;;;;;;;8.90;99.90;;;;;;4997068;28;19948;-78
2021/01/01 15:13:59;;;;;;;;;;;8.70;99.90;;;;;;4997941;28;20031;-79
2021/01/01 15:16:25;;;;;;;;;;;8.60;99.90;;;;;;4983969;28;19920;-81
2021/01/01 15:18:50;;;;;;;;;;;8.40;99.90;;;;;;5002531;28;19953;-81
2021/01/01 15:21:16;;;;;;;;;;;8.30;99.90;;;;;;5009222;28;19939;-81
2021/01/01 15:23:43;;;;;;;;;;;8.10;99.90;;;;;;5007247;28;19935;-81
2021/01/01 15:26:09;;;;;;;;;;;7.90;99.90;;;;;;5004552;28;19918;-81
2021/01/01 15:28:34;;;;;;;;;;;7.70;99.90;;;;;;4996353;28;19933;-80
2021/01/01 15:31:00;;;;;;;;;;;7.60;99.90;;;;;;5000488;28;19914;-81
2021/01/01 15:33:25;;;;;;;;;;;7.50;99.90;;;;;;5016888;28;20349;-80